createdAt,value
2023-01-05T00:00:50.757Z,98793.88
2023-01-05T00:03:17.287Z,98784.94
2023-01-05T00:05:44.095Z,98782.44
2023-01-05T00:08:10.819Z,98773.09
2023-01-05T00:10:56.804Z,98770.13
2023-01-05T00:13:42.129Z,98771.78
2023-01-05T00:16:33.968Z,98763.69
2023-01-05T00:19:19.320Z,98748.97
2023-01-05T00:22:04.239Z,98755.94
2023-01-05T00:24:31.810Z,98749.19
2023-01-05T00:26:58.306Z,98750.34
2023-01-05T00:29:24.859Z,98746.06
2023-01-05T00:31:51.456Z,98742.13
2023-01-05T00:34:17.994Z,98739.16
2023-01-05T00:36:44.468Z,98751.88
2023-01-05T00:39:10.955Z,98752.03
2023-01-05T00:41:37.514Z,98737.53
2023-01-05T00:44:04.042Z,98741.66
2023-01-05T00:46:30.586Z,98734.72
2023-01-05T00:48:57.136Z,98724.16
2023-01-05T00:51:23.719Z,98712.44
2023-01-05T00:53:50.180Z,98715.41
2023-01-05T00:56:16.669Z,98724.34
2023-01-05T00:58:43.146Z,98724.69
2023-01-05T01:01:13.032Z,98713.09
2023-01-05T01:03:39.788Z,98708.16
2023-01-05T01:06:06.604Z,98709.63
2023-01-05T01:08:33.129Z,98718.41
2023-01-05T01:11:07.013Z,98703.34
2023-01-05T01:13:33.687Z,98704.22
2023-01-05T01:16:13.913Z,98709.31
2023-01-05T01:18:40.817Z,98693.63
2023-01-05T01:21:07.516Z,98687.50
2023-01-05T01:23:34.373Z,98691.97
2023-01-05T01:26:08.824Z,98687.00
2023-01-05T01:28:35.390Z,98693.59
2023-01-05T01:31:02.125Z,98680.06
2023-01-05T01:33:29.270Z,98678.41
2023-01-05T01:35:56.169Z,98682.06
2023-01-05T01:38:23.249Z,98681.38
2023-01-05T01:40:50.573Z,98678.75
2023-01-05T01:43:20.216Z,98658.59
2023-01-05T01:45:46.802Z,98660.72
2023-01-05T01:48:17.549Z,98649.19
2023-01-05T01:50:48.221Z,98638.09
2023-01-05T01:53:21.529Z,98635.97
2023-01-05T01:55:48.049Z,98646.38
2023-01-05T01:58:16.739Z,98645.22
2023-01-05T02:00:43.742Z,98638.44
2023-01-05T02:03:10.716Z,98631.03
2023-01-05T02:05:38.157Z,98619.63
2023-01-05T02:08:10.612Z,98632.84
2023-01-05T02:10:52.359Z,98622.78
2023-01-05T02:13:31.574Z,98621.28
2023-01-05T02:16:04.412Z,98620.28
2023-01-05T02:18:39.628Z,98621.44
2023-01-05T02:21:42.481Z,98609.03
2023-01-05T02:24:24.417Z,98609.69
2023-01-05T02:27:06.261Z,98605.41
2023-01-05T02:29:42.150Z,98603.25
2023-01-05T02:32:23.341Z,98609.03
2023-01-05T02:35:08.584Z,98607.22
2023-01-05T02:37:34.985Z,98605.06
2023-01-05T02:40:20.085Z,98596.81
2023-01-05T02:42:48.355Z,98606.38
2023-01-05T02:45:15.661Z,98591.31
2023-01-05T02:47:44.154Z,98594.31
2023-01-05T02:50:30.396Z,98588.19
2023-01-05T02:53:03.713Z,98583.72
2023-01-05T02:55:37.387Z,98588.19
2023-01-05T02:58:27.393Z,98581.56
2023-01-05T03:00:57.127Z,98572.31
2023-01-05T03:03:31.674Z,98575.63
2023-01-05T03:06:12.205Z,98573.78
2023-01-05T03:08:42.444Z,98566.34
2023-01-05T03:11:29.374Z,98574.59
2023-01-05T03:14:08.527Z,98569.97
2023-01-05T03:16:36.363Z,98567.31
2023-01-05T03:19:23.339Z,98559.38
2023-01-05T03:22:09.264Z,98560.41
2023-01-05T03:24:56.526Z,98549.31
2023-01-05T03:27:42.182Z,98549.31
2023-01-05T03:30:28.312Z,98543.88
2023-01-05T03:33:23.725Z,98537.25
2023-01-05T03:35:55.445Z,98557.94
2023-01-05T03:38:39.140Z,98540.59
2023-01-05T03:41:10.388Z,98532.16
2023-01-05T03:43:37.116Z,98532.81
2023-01-05T03:46:10.764Z,98525.03
2023-01-05T03:48:37.632Z,98526.56
2023-01-05T03:51:04.804Z,98529.03
2023-01-05T03:53:31.283Z,98527.03
2023-01-05T03:55:57.918Z,98528.69
2023-01-05T03:58:24.389Z,98531.97
2023-01-05T04:00:50.913Z,98521.75
2023-01-05T04:03:17.621Z,98507.84
2023-01-05T04:05:44.302Z,98526.88
2023-01-05T04:08:10.823Z,98517.78
2023-01-05T04:10:37.643Z,98514.50
2023-01-05T04:13:04.185Z,98515.16
2023-01-05T04:15:30.640Z,98515.53
2023-01-05T04:17:57.394Z,98520.16
2023-01-05T04:20:23.864Z,98525.25
2023-01-05T04:22:50.489Z,98528.56
2023-01-05T04:25:17.104Z,98534.84
2023-01-05T04:27:43.841Z,98545.41
2023-01-05T04:30:10.785Z,98541.09
2023-01-05T04:32:37.648Z,98534.34
2023-01-05T04:35:11.059Z,98547.75
2023-01-05T04:37:38.998Z,98541.28
2023-01-05T04:40:06.223Z,98535.69
2023-01-05T04:42:32.781Z,98525.47
2023-01-05T04:44:59.442Z,98536.34
2023-01-05T04:47:25.965Z,98530.25
2023-01-05T04:49:52.511Z,98532.22
2023-01-05T04:52:19.411Z,98529.56
2023-01-05T04:54:45.886Z,98529.56
2023-01-05T04:57:12.326Z,98526.13
2023-01-05T04:59:38.944Z,98533.88
2023-01-05T05:02:05.723Z,98526.78
2023-01-05T05:04:32.399Z,98514.72
2023-01-05T05:06:59.027Z,98517.53
2023-01-05T05:09:25.719Z,98525.66
2023-01-05T05:11:52.180Z,98529.78
2023-01-05T05:14:19.307Z,98529.78
2023-01-05T05:16:45.887Z,98527.78
2023-01-05T05:19:12.470Z,98528.91
2023-01-05T05:21:39.022Z,98536.53
2023-01-05T05:24:05.917Z,98531.25
2023-01-05T05:26:32.422Z,98525.13
2023-01-05T05:28:59.863Z,98533.06
2023-01-05T05:31:26.504Z,98540.66
2023-01-05T05:33:53.072Z,98550.25
2023-01-05T05:36:20.377Z,98548.91
2023-01-05T05:38:47.016Z,98538.19
2023-01-05T05:41:13.550Z,98540.81
2023-01-05T05:43:40.345Z,98550.06
2023-01-05T05:46:06.988Z,98542.00
2023-01-05T05:48:33.604Z,98537.84
2023-01-05T05:51:00.334Z,98546.78
2023-01-05T05:53:26.980Z,98542.00
2023-01-05T05:55:53.547Z,98539.84
2023-01-05T05:58:20.392Z,98544.66
2023-01-05T06:00:47.059Z,98544.16
2023-01-05T06:03:13.766Z,98537.53
2023-01-05T06:05:40.434Z,98543.97
2023-01-05T06:08:07.080Z,98549.25
2023-01-05T06:10:35.160Z,98547.91
2023-01-05T06:13:01.842Z,98551.22
2023-01-05T06:15:28.469Z,98546.63
2023-01-05T06:17:54.982Z,98554.22
2023-01-05T06:20:22.189Z,98559.00
2023-01-05T06:22:48.642Z,98557.19
2023-01-05T06:25:15.806Z,98559.16
2023-01-05T06:27:42.435Z,98558.81
2023-01-05T06:30:09.819Z,98559.34
2023-01-05T06:32:36.329Z,98557.03
2023-01-05T06:35:02.957Z,98558.19
2023-01-05T06:37:29.476Z,98553.38
2023-01-05T06:39:56.480Z,98563.78
2023-01-05T06:42:23.678Z,98572.06
2023-01-05T06:44:50.457Z,98566.25
2023-01-05T06:47:17.212Z,98561.97
2023-01-05T06:49:43.684Z,98570.06
2023-01-05T06:52:15.930Z,98567.59
2023-01-05T06:54:43.286Z,98567.59
2023-01-05T06:57:09.900Z,98574.19
2023-01-05T06:59:36.591Z,98569.91
2023-01-05T07:02:03.453Z,98566.41
2023-01-05T07:04:30.239Z,98571.53
2023-01-05T07:06:57.161Z,98576.34
2023-01-05T07:09:23.659Z,98559.34
2023-01-05T07:11:50.156Z,98576.00
2023-01-05T07:14:17.295Z,98572.69
2023-01-05T07:16:43.882Z,98582.28
2023-01-05T07:19:10.782Z,98584.75
2023-01-05T07:21:37.261Z,98579.63
2023-01-05T07:24:03.889Z,98576.69
2023-01-05T07:26:30.398Z,98577.50
2023-01-05T07:28:58.505Z,98579.50
2023-01-05T07:31:24.977Z,98575.38
2023-01-05T07:33:51.497Z,98571.38
2023-01-05T07:36:18.255Z,98581.63
2023-01-05T07:38:44.923Z,98572.84
2023-01-05T07:41:11.770Z,98575.00
2023-01-05T07:43:38.389Z,98582.63
2023-01-05T07:46:05.404Z,98581.47
2023-01-05T07:48:32.111Z,98590.88
2023-01-05T07:51:05.588Z,98582.59
2023-01-05T07:53:41.285Z,98586.56
2023-01-05T07:56:11.376Z,98586.25
2023-01-05T07:58:37.925Z,98592.03
2023-01-05T08:01:10.421Z,98587.41
2023-01-05T08:03:37.147Z,98592.84
2023-01-05T08:06:12.086Z,98595.16
2023-01-05T08:08:38.921Z,98596.97
2023-01-05T08:11:07.012Z,98585.44
2023-01-05T08:13:55.687Z,98591.34
2023-01-05T08:16:24.769Z,98588.22
2023-01-05T08:18:51.785Z,98588.88
2023-01-05T08:21:20.547Z,98598.81
2023-01-05T08:23:47.113Z,98603.94
2023-01-05T08:26:17.040Z,98598.97
2023-01-05T08:28:43.915Z,98613.34
2023-01-05T08:31:13.836Z,98601.41
2023-01-05T08:33:40.362Z,98609.34
2023-01-05T08:36:14.760Z,98615.66
2023-01-05T08:38:48.112Z,98606.72
2023-01-05T08:41:35.783Z,98612.50
2023-01-05T08:44:15.617Z,98606.41
2023-01-05T08:46:42.176Z,98620.94
2023-01-05T08:49:09.741Z,98629.22
2023-01-05T08:51:37.074Z,98629.53
2023-01-05T08:54:03.848Z,98635.31
2023-01-05T08:56:36.385Z,98639.13
2023-01-05T08:59:07.078Z,98638.47
2023-01-05T09:01:33.752Z,98638.78
2023-01-05T09:04:00.403Z,98652.00
2023-01-05T09:06:27.540Z,98655.16
2023-01-05T09:08:54.853Z,98657.31
2023-01-05T09:11:23.173Z,98681.41
2023-01-05T09:13:52.518Z,98660.44
2023-01-05T09:16:56.850Z,98671.34
2023-01-05T09:19:09.699Z,98674.78
2023-01-05T09:21:36.236Z,98685.03
2023-01-05T09:24:03.172Z,98684.38
2023-01-05T09:26:30.125Z,98687.34
2023-01-05T09:28:56.677Z,98679.25
2023-01-05T09:31:23.993Z,98683.22
2023-01-05T09:33:50.927Z,98683.25
2023-01-05T09:36:19.351Z,98683.72
2023-01-05T09:38:57.290Z,98680.06
2023-01-05T09:41:28.819Z,98686.38
2023-01-05T09:43:58.595Z,98685.06
2023-01-05T09:46:29.776Z,98694.16
2023-01-05T09:48:59.404Z,98688.69
2023-01-05T09:51:26.631Z,98678.13
2023-01-05T09:53:53.840Z,98689.03
2023-01-05T09:57:07.376Z,98687.69
2023-01-05T09:59:31.371Z,98687.66
2023-01-05T10:02:05.736Z,98690.63
2023-01-05T10:04:34.002Z,98694.94
2023-01-05T10:07:04.409Z,98699.41
2023-01-05T10:09:33.906Z,98698.25
2023-01-05T10:12:28.000Z,98691.50
2023-01-05T10:14:59.599Z,98696.78
2023-01-05T10:17:43.638Z,98691.13
2023-01-05T10:20:14.659Z,98689.81
2023-01-05T10:23:21.707Z,98685.63
2023-01-05T10:25:54.927Z,98697.53
2023-01-05T10:28:42.498Z,98692.38
2023-01-05T10:31:46.496Z,98689.28
2023-01-05T10:34:51.021Z,98688.75
2023-01-05T10:37:45.702Z,98685.13
2023-01-05T10:40:12.315Z,98684.34
2023-01-05T10:42:45.526Z,98685.34
2023-01-05T10:45:15.615Z,98695.13
2023-01-05T10:47:42.370Z,98688.91
2023-01-05T10:50:40.215Z,98690.91
2023-01-05T10:53:13.566Z,98688.97
2023-01-05T10:55:50.683Z,98686.94
2023-01-05T10:58:23.980Z,98686.63
2023-01-05T11:00:50.955Z,98688.31
2023-01-05T11:03:18.670Z,98684.72
2023-01-05T11:05:47.129Z,98692.66
2023-01-05T11:08:17.086Z,98692.31
2023-01-05T11:10:58.303Z,98693.31
2023-01-05T11:13:28.762Z,98689.66
2023-01-05T11:15:59.877Z,98687.50
2023-01-05T11:18:32.541Z,98689.66
2023-01-05T11:21:17.627Z,98692.31
2023-01-05T11:23:50.010Z,98699.25
2023-01-05T11:26:23.840Z,98692.31
2023-01-05T11:29:10.294Z,98704.91
2023-01-05T11:31:45.829Z,98702.41
2023-01-05T11:34:30.446Z,98687.38
2023-01-05T11:37:04.085Z,98696.13
2023-01-05T11:39:42.876Z,98696.28
2023-01-05T11:42:26.014Z,98691.69
2023-01-05T11:44:57.593Z,98688.69
2023-01-05T11:47:26.961Z,98701.59
2023-01-05T11:50:26.032Z,98694.81
2023-01-05T11:52:57.605Z,98680.09
2023-01-05T11:55:32.158Z,98689.03
2023-01-05T11:58:17.795Z,98686.22
2023-01-05T12:01:03.419Z,98684.38
2023-01-05T12:03:56.894Z,98689.19
2023-01-05T12:06:46.639Z,98690.84
2023-01-05T12:09:34.402Z,98692.34
2023-01-05T12:12:16.884Z,98695.31
2023-01-05T12:14:54.278Z,98697.63
2023-01-05T12:17:30.320Z,98702.91
2023-01-05T12:20:32.016Z,98700.13
2023-01-05T12:23:36.585Z,98705.41
2023-01-05T12:26:26.319Z,98696.63
2023-01-05T12:30:33.011Z,98701.09
2023-01-05T12:35:23.399Z,98695.66
2023-01-05T12:38:22.012Z,98692.31
2023-01-05T12:40:54.974Z,98684.56
2023-01-05T12:43:58.465Z,98683.56
2023-01-05T12:46:40.060Z,98692.16
2023-01-05T12:49:13.053Z,98692.50
2023-01-05T12:52:06.885Z,98688.84
2023-01-05T12:54:58.360Z,98692.66
2023-01-05T12:57:41.480Z,98702.25
2023-01-05T13:00:14.206Z,98697.59
2023-01-05T13:02:44.521Z,98700.25
2023-01-05T13:05:38.843Z,98694.94
2023-01-05T13:08:15.973Z,98700.84
2023-01-05T13:10:50.393Z,98699.03
2023-01-05T13:13:24.763Z,98696.22
2023-01-05T13:15:54.195Z,98696.22
2023-01-05T13:18:21.267Z,98696.03
2023-01-05T13:20:56.596Z,98714.84
2023-01-05T13:23:27.843Z,98712.34
2023-01-05T13:26:06.714Z,98711.66
2023-01-05T13:28:34.901Z,98724.53
2023-01-05T13:31:31.184Z,98718.09
2023-01-05T13:34:26.538Z,98721.22
2023-01-05T13:37:34.929Z,98726.84
2023-01-05T13:40:01.333Z,98728.50
2023-01-05T13:42:37.157Z,98727.16
2023-01-05T13:45:44.937Z,98726.28
2023-01-05T13:48:44.111Z,98728.06
2023-01-05T13:51:55.324Z,98728.97
2023-01-05T13:54:49.354Z,98728.47
2023-01-05T13:57:27.261Z,98730.59
2023-01-05T14:00:06.594Z,98727.66
2023-01-05T14:02:38.816Z,98727.66
2023-01-05T14:05:33.921Z,98731.59
2023-01-05T14:08:03.306Z,98736.72
2023-01-05T14:10:31.999Z,98750.88
2023-01-05T14:12:59.693Z,98746.13
2023-01-05T14:15:37.818Z,98748.09
2023-01-05T14:18:06.353Z,98755.00
2023-01-05T14:20:42.113Z,98748.38
2023-01-05T14:23:37.955Z,98750.38
2023-01-05T14:26:08.123Z,98746.75
2023-01-05T14:28:44.483Z,98746.75
2023-01-05T14:31:14.465Z,98731.22
2023-01-05T14:34:09.806Z,98751.34
2023-01-05T14:36:45.311Z,98752.63
2023-01-05T14:39:17.772Z,98755.44
2023-01-05T14:42:06.539Z,98759.91
2023-01-05T14:44:49.960Z,98755.94
2023-01-05T14:47:19.425Z,98761.22
2023-01-05T14:50:03.647Z,98761.53
2023-01-05T14:52:53.983Z,98756.41
2023-01-05T14:55:49.127Z,98758.91
2023-01-05T14:58:35.639Z,98760.41
2023-01-05T15:01:17.653Z,98761.22
2023-01-05T15:04:00.883Z,98758.28
2023-01-05T15:06:36.752Z,98766.84
2023-01-05T15:09:20.172Z,98764.41
2023-01-05T15:12:14.283Z,98765.91
2023-01-05T15:15:05.993Z,98753.03
2023-01-05T15:18:09.844Z,98761.91
2023-01-05T15:21:04.309Z,98762.25
2023-01-05T15:23:40.205Z,98753.38
2023-01-05T15:26:21.440Z,98757.31
2023-01-05T15:29:11.065Z,98756.69
2023-01-05T15:31:47.529Z,98761.59
2023-01-05T15:34:23.690Z,98760.63
2023-01-05T15:37:05.325Z,98756.16
2023-01-05T15:39:37.374Z,98760.34
2023-01-05T15:42:08.800Z,98766.72
2023-01-05T15:44:42.671Z,98764.72
2023-01-05T15:47:11.044Z,98768.78
2023-01-05T15:49:38.657Z,98778.44
2023-01-05T15:52:05.690Z,98781.53
2023-01-05T15:54:36.480Z,98779.22
2023-01-05T15:57:03.277Z,98787.81
2023-01-05T15:59:40.564Z,98787.00
2023-01-05T16:02:36.637Z,98788.97
2023-01-05T16:05:09.563Z,98789.66
2023-01-05T16:07:42.317Z,98787.78
2023-01-05T16:10:35.059Z,98803.75
2023-01-05T16:13:07.365Z,98817.47
2023-01-05T16:15:36.140Z,98804.09
2023-01-05T16:18:04.691Z,98798.91
2023-01-05T16:20:32.587Z,98811.59
2023-01-05T16:23:08.783Z,98821.22
2023-01-05T16:25:56.817Z,98817.44
2023-01-05T16:28:24.620Z,98825.38
2023-01-05T16:30:53.289Z,98830.25
2023-01-05T16:33:36.610Z,98824.75
2023-01-05T16:36:07.879Z,98825.44
2023-01-05T16:38:34.756Z,98857.66
2023-01-05T16:41:11.779Z,98864.94
2023-01-05T16:43:56.455Z,98863.97
2023-01-05T16:46:29.161Z,98875.22
2023-01-05T16:49:04.239Z,98880.75
2023-01-05T16:51:35.972Z,98880.38
2023-01-05T16:54:07.247Z,98899.50
2023-01-05T16:56:33.845Z,98893.28
2023-01-05T16:59:13.353Z,98892.16
2023-01-05T17:01:44.356Z,98896.75
2023-01-05T17:04:12.751Z,98901.63
2023-01-05T17:06:39.722Z,98912.16
2023-01-05T17:09:12.943Z,98926.75
2023-01-05T17:11:39.821Z,98929.09
2023-01-05T17:14:07.059Z,98938.03
2023-01-05T17:16:33.778Z,98954.69
2023-01-05T17:19:02.075Z,98948.56
2023-01-05T17:21:31.972Z,98957.31
2023-01-05T17:23:59.671Z,98971.44
2023-01-05T17:26:37.621Z,98963.53
2023-01-05T17:29:05.457Z,98972.97
2023-01-05T17:31:31.935Z,98983.50
2023-01-05T17:33:58.576Z,98986.97
2023-01-05T17:36:28.367Z,98991.00
2023-01-05T17:38:54.928Z,98991.56
2023-01-05T17:41:21.473Z,98997.41
2023-01-05T17:43:48.436Z,99007.38
2023-01-05T17:46:22.711Z,99002.94
2023-01-05T17:48:52.221Z,99005.84
2023-01-05T17:51:20.378Z,99012.34
2023-01-05T17:53:47.001Z,99024.84
2023-01-05T17:56:13.745Z,99017.78
2023-01-05T17:58:40.535Z,99033.56
2023-01-05T18:01:07.140Z,99043.13
2023-01-05T18:03:33.884Z,99037.03
2023-01-05T18:06:01.593Z,99050.06
2023-01-05T18:08:28.534Z,99060.19
2023-01-05T18:10:55.091Z,99063.78
2023-01-05T18:13:22.885Z,99065.28
2023-01-05T18:15:50.569Z,99069.03
2023-01-05T18:18:19.193Z,99068.78
2023-01-05T18:20:45.655Z,99086.09
2023-01-05T18:23:12.154Z,99096.63
2023-01-05T18:25:39.621Z,99097.88
2023-01-05T18:28:06.412Z,99091.09
2023-01-05T18:30:32.971Z,99111.84
2023-01-05T18:32:59.580Z,99108.81
2023-01-05T18:35:26.251Z,99120.03
2023-01-05T18:40:23.548Z,99132.63
2023-01-05T18:42:53.597Z,99132.31
2023-01-05T18:45:31.917Z,99142.03
2023-01-05T18:48:09.192Z,99147.97
2023-01-05T18:50:40.312Z,99157.53
2023-01-05T18:53:07.047Z,99163.22
2023-01-05T18:55:33.613Z,99166.13
2023-01-05T18:58:00.197Z,99161.66
2023-01-05T19:00:26.988Z,99172.03
2023-01-05T19:02:53.533Z,99172.84
2023-01-05T19:05:23.328Z,99185.84
2023-01-05T19:07:53.265Z,99187.34
2023-01-05T19:10:23.942Z,99221.13
2023-01-05T19:12:50.591Z,99203.94
2023-01-05T19:15:17.442Z,99211.16
2023-01-05T19:17:44.058Z,99219.72
2023-01-05T19:20:11.003Z,99218.34
2023-01-05T19:22:37.799Z,99233.56
2023-01-05T19:25:05.821Z,99226.94
2023-01-05T19:27:32.365Z,99226.94
2023-01-05T19:29:58.916Z,99229.09
2023-01-05T19:32:25.860Z,99245.03
2023-01-05T19:34:52.374Z,99246.63
2023-01-05T19:37:22.386Z,99244.25
2023-01-05T19:39:49.004Z,99248.69
2023-01-05T19:42:15.737Z,99254.78
2023-01-05T19:44:42.559Z,99261.25
2023-01-05T19:47:09.212Z,99271.31
2023-01-05T19:49:35.953Z,99282.66
2023-01-05T19:52:02.629Z,99283.16
2023-01-05T19:54:29.816Z,99297.63
2023-01-05T19:56:56.462Z,99300.63
2023-01-05T19:59:26.601Z,99287.97
2023-01-05T20:01:54.819Z,99317.16
2023-01-05T20:04:21.441Z,99315.47
2023-01-05T20:06:47.954Z,99327.06
2023-01-05T20:09:16.999Z,99339.91
2023-01-05T20:11:47.769Z,99328.41
2023-01-05T20:14:19.917Z,99343.84
2023-01-05T20:16:53.706Z,99361.31
2023-01-05T20:19:21.474Z,99351.84
2023-01-05T20:21:49.435Z,99356.28
2023-01-05T20:24:24.019Z,99360.97
2023-01-05T20:26:53.465Z,99383.78
2023-01-05T20:29:21.744Z,99392.97
2023-01-05T20:31:56.863Z,99385.56
2023-01-05T20:34:25.382Z,99400.75
2023-01-05T20:36:52.040Z,99407.19
2023-01-05T20:39:22.103Z,99409.00
2023-01-05T20:41:51.743Z,99411.72
2023-01-05T20:44:21.132Z,99424.50
2023-01-05T20:46:49.726Z,99436.94
2023-01-05T20:49:16.644Z,99439.22
2023-01-05T20:51:44.143Z,99442.19
2023-01-05T20:54:11.899Z,99453.06
